Terminal Aerodrome Forecast
Issued by NWS

Home | Current Version | Previous Version | Text Only | Print | Product List | Glossary On
Versions: 1 2 3 4 5 6 7 8 9 10 11 12 13 14 15 16 17 18 19 20 21 22 23 24 25 26
341
FTUS45 KLKN 222001 AAA
TAFEKO
TAF AMD
KEKO 222001Z 2220/2318 24004KT P6SM -SHRA SCT015 OVC040
      TEMPO 2220/2221 BKN015 OVC040
     FM222100 26007KT P6SM OVC040
     FM230300 07003KT P6SM SCT040=

USA.gov is the U.S. government's official web portal to all federal, state and local government web resources and services.